sensor_id;sensor_type;location;lat;lon;timestamp;P1;durP1;ratioP1;P2;durP2;ratioP2
80700;SDS011;71609;42.630;23.380;2024-02-26T00:01:26;4.50;;;1.80;;
80700;SDS011;71609;42.630;23.380;2024-02-26T00:03:52;4.40;;;1.90;;
80700;SDS011;71609;42.630;23.380;2024-02-26T00:06:20;3.00;;;1.50;;
80700;SDS011;71609;42.630;23.380;2024-02-26T00:08:46;4.15;;;1.80;;
80700;SDS011;71609;42.630;23.380;2024-02-26T00:11:11;3.70;;;1.63;;
80700;SDS011;71609;42.630;23.380;2024-02-26T00:13:37;3.63;;;1.85;;
80700;SDS011;71609;42.630;23.380;2024-02-26T00:16:05;3.10;;;1.58;;
80700;SDS011;71609;42.630;23.380;2024-02-26T00:18:32;4.65;;;2.15;;
80700;SDS011;71609;42.630;23.380;2024-02-26T00:20:58;3.90;;;1.63;;
80700;SDS011;71609;42.630;23.380;2024-02-26T00:23:24;4.35;;;1.60;;
80700;SDS011;71609;42.630;23.380;2024-02-26T00:25:50;4.82;;;1.83;;
80700;SDS011;71609;42.630;23.380;2024-02-26T00:28:15;5.15;;;2.03;;
80700;SDS011;71609;42.630;23.380;2024-02-26T00:30:41;4.70;;;1.83;;
80700;SDS011;71609;42.630;23.380;2024-02-26T00:33:07;4.55;;;1.80;;
80700;SDS011;71609;42.630;23.380;2024-02-26T00:35:33;4.22;;;1.80;;
80700;SDS011;71609;42.630;23.380;2024-02-26T00:37:59;3.70;;;1.58;;
80700;SDS011;71609;42.630;23.380;2024-02-26T00:40:26;4.47;;;2.00;;
80700;SDS011;71609;42.630;23.380;2024-02-26T00:42:52;4.57;;;1.73;;
80700;SDS011;71609;42.630;23.380;2024-02-26T00:45:18;4.18;;;1.75;;
80700;SDS011;71609;42.630;23.380;2024-02-26T00:47:43;5.20;;;1.88;;
80700;SDS011;71609;42.630;23.380;2024-02-26T00:50:10;4.03;;;1.70;;
80700;SDS011;71609;42.630;23.380;2024-02-26T00:52:36;3.67;;;1.70;;
80700;SDS011;71609;42.630;23.380;2024-02-26T00:55:02;4.82;;;1.90;;
80700;SDS011;71609;42.630;23.380;2024-02-26T00:57:28;3.50;;;1.58;;
80700;SDS011;71609;42.630;23.380;2024-02-26T00:59:54;4.80;;;1.73;;
80700;SDS011;71609;42.630;23.380;2024-02-26T01:02:21;3.83;;;1.60;;
80700;SDS011;71609;42.630;23.380;2024-02-26T01:04:47;3.13;;;1.50;;
80700;SDS011;71609;42.630;23.380;2024-02-26T01:07:13;4.72;;;2.05;;
80700;SDS011;71609;42.630;23.380;2024-02-26T01:09:39;5.25;;;1.77;;
80700;SDS011;71609;42.630;23.380;2024-02-26T01:12:05;3.40;;;1.55;;
80700;SDS011;71609;42.630;23.380;2024-02-26T01:14:31;4.57;;;1.90;;
80700;SDS011;71609;42.630;23.380;2024-02-26T01:16:56;4.38;;;2.05;;
80700;SDS011;71609;42.630;23.380;2024-02-26T01:19:22;3.83;;;1.70;;
80700;SDS011;71609;42.630;23.380;2024-02-26T01:21:48;4.30;;;1.95;;
80700;SDS011;71609;42.630;23.380;2024-02-26T01:24:14;6.40;;;2.00;;
80700;SDS011;71609;42.630;23.380;2024-02-26T01:26:40;3.40;;;1.70;;
80700;SDS011;71609;42.630;23.380;2024-02-26T01:29:06;3.67;;;1.70;;
80700;SDS011;71609;42.630;23.380;2024-02-26T01:31:32;4.03;;;1.80;;
80700;SDS011;71609;42.630;23.380;2024-02-26T01:33:57;4.72;;;2.10;;
80700;SDS011;71609;42.630;23.380;2024-02-26T01:36:23;4.70;;;1.83;;
80700;SDS011;71609;42.630;23.380;2024-02-26T01:38:49;3.92;;;1.80;;
80700;SDS011;71609;42.630;23.380;2024-02-26T01:41:15;4.20;;;1.80;;
80700;SDS011;71609;42.630;23.380;2024-02-26T01:43:40;4.68;;;2.00;;
80700;SDS011;71609;42.630;23.380;2024-02-26T01:46:07;3.65;;;1.60;;
80700;SDS011;71609;42.630;23.380;2024-02-26T01:48:39;4.30;;;1.92;;
80700;SDS011;71609;42.630;23.380;2024-02-26T01:51:08;3.28;;;1.67;;
80700;SDS011;71609;42.630;23.380;2024-02-26T01:53:35;3.60;;;1.75;;
80700;SDS011;71609;42.630;23.380;2024-02-26T01:56:01;3.88;;;1.67;;
80700;SDS011;71609;42.630;23.380;2024-02-26T01:58:27;5.00;;;1.63;;
80700;SDS011;71609;42.630;23.380;2024-02-26T02:00:55;3.55;;;1.70;;
80700;SDS011;71609;42.630;23.380;2024-02-26T02:03:22;5.85;;;2.00;;
80700;SDS011;71609;42.630;23.380;2024-02-26T02:05:48;4.65;;;1.90;;
80700;SDS011;71609;42.630;23.380;2024-02-26T02:08:14;3.50;;;1.77;;
80700;SDS011;71609;42.630;23.380;2024-02-26T02:10:40;3.95;;;1.85;;
80700;SDS011;71609;42.630;23.380;2024-02-26T02:13:07;4.18;;;2.00;;
80700;SDS011;71609;42.630;23.380;2024-02-26T02:15:33;4.18;;;1.83;;
80700;SDS011;71609;42.630;23.380;2024-02-26T02:17:59;3.90;;;1.90;;
80700;SDS011;71609;42.630;23.380;2024-02-26T02:20:34;3.72;;;1.60;;
80700;SDS011;71609;42.630;23.380;2024-02-26T02:23:00;4.75;;;1.80;;
80700;SDS011;71609;42.630;23.380;2024-02-26T02:25:27;4.75;;;2.00;;
80700;SDS011;71609;42.630;23.380;2024-02-26T02:27:53;4.55;;;2.00;;
80700;SDS011;71609;42.630;23.380;2024-02-26T02:30:24;4.25;;;2.00;;
80700;SDS011;71609;42.630;23.380;2024-02-26T02:32:53;3.97;;;1.88;;
80700;SDS011;71609;42.630;23.380;2024-02-26T02:35:19;4.45;;;1.80;;
80700;SDS011;71609;42.630;23.380;2024-02-26T02:37:44;4.65;;;1.80;;
80700;SDS011;71609;42.630;23.380;2024-02-26T02:40:10;5.13;;;2.05;;
80700;SDS011;71609;42.630;23.380;2024-02-26T02:42:36;3.53;;;1.77;;
80700;SDS011;71609;42.630;23.380;2024-02-26T02:45:01;4.00;;;1.63;;
80700;SDS011;71609;42.630;23.380;2024-02-26T02:47:27;3.30;;;1.52;;
80700;SDS011;71609;42.630;23.380;2024-02-26T02:49:53;3.95;;;1.75;;
80700;SDS011;71609;42.630;23.380;2024-02-26T02:52:19;3.75;;;1.75;;
80700;SDS011;71609;42.630;23.380;2024-02-26T02:54:44;5.10;;;1.95;;
80700;SDS011;71609;42.630;23.380;2024-02-26T02:57:12;4.65;;;1.80;;
80700;SDS011;71609;42.630;23.380;2024-02-26T02:59:37;6.03;;;2.15;;
80700;SDS011;71609;42.630;23.380;2024-02-26T03:02:04;3.42;;;1.60;;
80700;SDS011;71609;42.630;23.380;2024-02-26T03:04:31;3.65;;;1.70;;
80700;SDS011;71609;42.630;23.380;2024-02-26T03:06:57;3.70;;;1.88;;
80700;SDS011;71609;42.630;23.380;2024-02-26T03:09:23;5.95;;;2.08;;
80700;SDS011;71609;42.630;23.380;2024-02-26T03:11:49;4.03;;;1.70;;
80700;SDS011;71609;42.630;23.380;2024-02-26T03:14:14;3.80;;;1.73;;
80700;SDS011;71609;42.630;23.380;2024-02-26T03:16:40;4.50;;;1.83;;
80700;SDS011;71609;42.630;23.380;2024-02-26T03:19:06;3.83;;;1.83;;
80700;SDS011;71609;42.630;23.380;2024-02-26T03:21:32;5.40;;;2.00;;
80700;SDS011;71609;42.630;23.380;2024-02-26T03:23:58;3.42;;;1.60;;
80700;SDS011;71609;42.630;23.380;2024-02-26T03:26:24;4.63;;;1.80;;
80700;SDS011;71609;42.630;23.380;2024-02-26T03:28:49;3.97;;;1.80;;
80700;SDS011;71609;42.630;23.380;2024-02-26T03:31:15;3.97;;;1.80;;
80700;SDS011;71609;42.630;23.380;2024-02-26T03:33:41;3.95;;;1.70;;
80700;SDS011;71609;42.630;23.380;2024-02-26T03:36:07;3.80;;;1.88;;
80700;SDS011;71609;42.630;23.380;2024-02-26T03:38:33;4.03;;;1.60;;
80700;SDS011;71609;42.630;23.380;2024-02-26T03:40:58;3.90;;;1.70;;
80700;SDS011;71609;42.630;23.380;2024-02-26T03:43:24;4.60;;;1.85;;
80700;SDS011;71609;42.630;23.380;2024-02-26T03:45:50;5.45;;;2.40;;
80700;SDS011;71609;42.630;23.380;2024-02-26T03:48:16;3.78;;;1.85;;
80700;SDS011;71609;42.630;23.380;2024-02-26T03:50:41;4.38;;;1.73;;
80700;SDS011;71609;42.630;23.380;2024-02-26T03:53:07;4.43;;;1.75;;
80700;SDS011;71609;42.630;23.380;2024-02-26T03:55:34;4.72;;;2.20;;
80700;SDS011;71609;42.630;23.380;2024-02-26T03:58:00;4.63;;;1.98;;
80700;SDS011;71609;42.630;23.380;2024-02-26T04:00:26;4.82;;;1.80;;
80700;SDS011;71609;42.630;23.380;2024-02-26T04:02:54;3.13;;;1.50;;
80700;SDS011;71609;42.630;23.380;2024-02-26T04:05:19;3.63;;;1.83;;
80700;SDS011;71609;42.630;23.380;2024-02-26T04:07:45;4.32;;;1.80;;
80700;SDS011;71609;42.630;23.380;2024-02-26T04:10:11;5.25;;;1.80;;
80700;SDS011;71609;42.630;23.380;2024-02-26T04:12:38;3.60;;;1.65;;
80700;SDS011;71609;42.630;23.380;2024-02-26T04:15:05;4.43;;;1.75;;
80700;SDS011;71609;42.630;23.380;2024-02-26T04:17:32;4.50;;;1.88;;
80700;SDS011;71609;42.630;23.380;2024-02-26T04:19:58;3.45;;;1.50;;
80700;SDS011;71609;42.630;23.380;2024-02-26T04:22:23;3.72;;;2.00;;
80700;SDS011;71609;42.630;23.380;2024-02-26T04:24:49;4.75;;;1.73;;
80700;SDS011;71609;42.630;23.380;2024-02-26T04:27:15;5.43;;;2.20;;
80700;SDS011;71609;42.630;23.380;2024-02-26T04:29:41;3.97;;;1.83;;
80700;SDS011;71609;42.630;23.380;2024-02-26T04:32:06;3.92;;;1.65;;
80700;SDS011;71609;42.630;23.380;2024-02-26T04:34:32;3.65;;;1.67;;
80700;SDS011;71609;42.630;23.380;2024-02-26T04:36:58;4.65;;;1.85;;
80700;SDS011;71609;42.630;23.380;2024-02-26T04:39:23;4.50;;;1.90;;
80700;SDS011;71609;42.630;23.380;2024-02-26T04:41:49;4.28;;;2.00;;
80700;SDS011;71609;42.630;23.380;2024-02-26T04:44:15;5.22;;;1.83;;
80700;SDS011;71609;42.630;23.380;2024-02-26T04:46:41;4.18;;;2.00;;
80700;SDS011;71609;42.630;23.380;2024-02-26T04:49:06;3.70;;;1.67;;
80700;SDS011;71609;42.630;23.380;2024-02-26T04:51:32;4.00;;;1.77;;
80700;SDS011;71609;42.630;23.380;2024-02-26T04:53:58;4.38;;;2.00;;
80700;SDS011;71609;42.630;23.380;2024-02-26T04:56:24;3.55;;;1.80;;
80700;SDS011;71609;42.630;23.380;2024-02-26T04:58:50;3.80;;;1.83;;
80700;SDS011;71609;42.630;23.380;2024-02-26T05:01:16;3.92;;;1.92;;
80700;SDS011;71609;42.630;23.380;2024-02-26T05:03:42;5.45;;;1.88;;
80700;SDS011;71609;42.630;23.380;2024-02-26T05:06:08;4.65;;;1.70;;
80700;SDS011;71609;42.630;23.380;2024-02-26T05:08:34;3.83;;;1.80;;
80700;SDS011;71609;42.630;23.380;2024-02-26T05:11:04;5.28;;;2.40;;
80700;SDS011;71609;42.630;23.380;2024-02-26T05:13:30;14.90;;;3.80;;
80700;SDS011;71609;42.630;23.380;2024-02-26T05:15:56;11.88;;;4.13;;
80700;SDS011;71609;42.630;23.380;2024-02-26T05:18:22;8.80;;;3.60;;
80700;SDS011;71609;42.630;23.380;2024-02-26T05:20:48;9.38;;;3.88;;
80700;SDS011;71609;42.630;23.380;2024-02-26T05:23:14;8.20;;;4.45;;
80700;SDS011;71609;42.630;23.380;2024-02-26T05:25:39;11.93;;;5.00;;
80700;SDS011;71609;42.630;23.380;2024-02-26T05:28:06;12.93;;;5.47;;
80700;SDS011;71609;42.630;23.380;2024-02-26T05:30:32;9.90;;;6.00;;
80700;SDS011;71609;42.630;23.380;2024-02-26T05:32:58;8.80;;;4.90;;
80700;SDS011;71609;42.630;23.380;2024-02-26T05:35:24;12.40;;;5.25;;
80700;SDS011;71609;42.630;23.380;2024-02-26T05:37:50;9.48;;;5.25;;
80700;SDS011;71609;42.630;23.380;2024-02-26T05:40:16;13.18;;;5.68;;
80700;SDS011;71609;42.630;23.380;2024-02-26T05:42:42;12.68;;;5.47;;
80700;SDS011;71609;42.630;23.380;2024-02-26T05:45:10;12.20;;;5.40;;
80700;SDS011;71609;42.630;23.380;2024-02-26T05:47:36;10.25;;;5.20;;
80700;SDS011;71609;42.630;23.380;2024-02-26T05:50:07;11.02;;;5.55;;
80700;SDS011;71609;42.630;23.380;2024-02-26T05:52:35;10.05;;;5.13;;
80700;SDS011;71609;42.630;23.380;2024-02-26T05:55:02;13.45;;;5.82;;
80700;SDS011;71609;42.630;23.380;2024-02-26T05:57:28;10.80;;;5.38;;
80700;SDS011;71609;42.630;23.380;2024-02-26T05:59:54;11.40;;;5.30;;
80700;SDS011;71609;42.630;23.380;2024-02-26T06:02:20;9.43;;;5.00;;
80700;SDS011;71609;42.630;23.380;2024-02-26T06:04:46;11.60;;;5.30;;
80700;SDS011;71609;42.630;23.380;2024-02-26T06:07:12;9.52;;;5.00;;
80700;SDS011;71609;42.630;23.380;2024-02-26T06:09:37;13.27;;;5.72;;
80700;SDS011;71609;42.630;23.380;2024-02-26T06:12:04;10.07;;;5.28;;
80700;SDS011;71609;42.630;23.380;2024-02-26T06:14:30;11.23;;;4.88;;
80700;SDS011;71609;42.630;23.380;2024-02-26T06:16:56;11.73;;;5.00;;
80700;SDS011;71609;42.630;23.380;2024-02-26T06:19:22;9.30;;;4.38;;
80700;SDS011;71609;42.630;23.380;2024-02-26T06:21:47;9.05;;;4.68;;
80700;SDS011;71609;42.630;23.380;2024-02-26T06:24:13;14.80;;;4.43;;
80700;SDS011;71609;42.630;23.380;2024-02-26T06:26:39;13.63;;;4.47;;
80700;SDS011;71609;42.630;23.380;2024-02-26T06:29:05;10.85;;;4.40;;
80700;SDS011;71609;42.630;23.380;2024-02-26T06:31:30;14.75;;;5.00;;
80700;SDS011;71609;42.630;23.380;2024-02-26T06:33:56;13.15;;;5.10;;
80700;SDS011;71609;42.630;23.380;2024-02-26T06:36:22;10.77;;;4.55;;
80700;SDS011;71609;42.630;23.380;2024-02-26T06:38:48;13.48;;;4.30;;
80700;SDS011;71609;42.630;23.380;2024-02-26T06:41:14;8.20;;;3.80;;
80700;SDS011;71609;42.630;23.380;2024-02-26T06:43:40;25.15;;;5.00;;
80700;SDS011;71609;42.630;23.380;2024-02-26T06:46:06;10.35;;;4.00;;
80700;SDS011;71609;42.630;23.380;2024-02-26T06:48:32;8.25;;;3.85;;
80700;SDS011;71609;42.630;23.380;2024-02-26T06:50:58;8.73;;;3.50;;
80700;SDS011;71609;42.630;23.380;2024-02-26T06:53:23;11.60;;;3.83;;
80700;SDS011;71609;42.630;23.380;2024-02-26T06:55:50;8.18;;;3.70;;
80700;SDS011;71609;42.630;23.380;2024-02-26T06:58:16;8.02;;;3.83;;
80700;SDS011;71609;42.630;23.380;2024-02-26T07:00:41;9.98;;;3.83;;
80700;SDS011;71609;42.630;23.380;2024-02-26T07:03:07;10.32;;;4.00;;
80700;SDS011;71609;42.630;23.380;2024-02-26T07:05:33;8.85;;;4.20;;
80700;SDS011;71609;42.630;23.380;2024-02-26T07:07:59;8.52;;;3.53;;
80700;SDS011;71609;42.630;23.380;2024-02-26T07:10:25;9.82;;;4.00;;
80700;SDS011;71609;42.630;23.380;2024-02-26T07:12:50;11.00;;;3.85;;
80700;SDS011;71609;42.630;23.380;2024-02-26T07:15:16;9.30;;;3.88;;
80700;SDS011;71609;42.630;23.380;2024-02-26T07:17:42;8.93;;;3.63;;
80700;SDS011;71609;42.630;23.380;2024-02-26T07:20:12;8.88;;;3.35;;
80700;SDS011;71609;42.630;23.380;2024-02-26T07:22:38;7.53;;;3.10;;
80700;SDS011;71609;42.630;23.380;2024-02-26T07:25:03;14.48;;;3.60;;
80700;SDS011;71609;42.630;23.380;2024-02-26T07:27:32;9.30;;;3.75;;
80700;SDS011;71609;42.630;23.380;2024-02-26T07:29:58;8.48;;;3.28;;
80700;SDS011;71609;42.630;23.380;2024-02-26T07:32:24;9.00;;;3.20;;
80700;SDS011;71609;42.630;23.380;2024-02-26T07:34:50;13.10;;;3.45;;
80700;SDS011;71609;42.630;23.380;2024-02-26T07:37:15;7.85;;;3.42;;
80700;SDS011;71609;42.630;23.380;2024-02-26T07:39:41;11.82;;;3.50;;
80700;SDS011;71609;42.630;23.380;2024-02-26T07:42:07;7.93;;;3.42;;
80700;SDS011;71609;42.630;23.380;2024-02-26T07:44:33;9.77;;;3.45;;
80700;SDS011;71609;42.630;23.380;2024-02-26T07:46:59;13.45;;;3.28;;
80700;SDS011;71609;42.630;23.380;2024-02-26T07:49:24;13.93;;;3.33;;
80700;SDS011;71609;42.630;23.380;2024-02-26T07:51:50;8.40;;;3.67;;
80700;SDS011;71609;42.630;23.380;2024-02-26T07:54:16;7.07;;;3.40;;
80700;SDS011;71609;42.630;23.380;2024-02-26T07:56:43;11.02;;;3.92;;
80700;SDS011;71609;42.630;23.380;2024-02-26T07:59:08;15.57;;;3.42;;
80700;SDS011;71609;42.630;23.380;2024-02-26T08:01:34;13.43;;;3.38;;
80700;SDS011;71609;42.630;23.380;2024-02-26T08:04:00;10.40;;;3.65;;
80700;SDS011;71609;42.630;23.380;2024-02-26T08:06:26;10.50;;;3.55;;
80700;SDS011;71609;42.630;23.380;2024-02-26T08:08:53;17.15;;;3.70;;
80700;SDS011;71609;42.630;23.380;2024-02-26T08:11:18;10.75;;;3.60;;
80700;SDS011;71609;42.630;23.380;2024-02-26T08:13:44;12.70;;;3.45;;
80700;SDS011;71609;42.630;23.380;2024-02-26T08:16:10;13.88;;;3.63;;
80700;SDS011;71609;42.630;23.380;2024-02-26T08:18:37;10.25;;;3.45;;
80700;SDS011;71609;42.630;23.380;2024-02-26T08:21:02;20.30;;;3.90;;
80700;SDS011;71609;42.630;23.380;2024-02-26T08:23:28;16.60;;;3.60;;
80700;SDS011;71609;42.630;23.380;2024-02-26T08:25:56;16.17;;;3.70;;
80700;SDS011;71609;42.630;23.380;2024-02-26T08:28:21;20.40;;;3.22;;
80700;SDS011;71609;42.630;23.380;2024-02-26T08:30:47;26.92;;;4.03;;
80700;SDS011;71609;42.630;23.380;2024-02-26T08:33:13;17.33;;;3.65;;
80700;SDS011;71609;42.630;23.380;2024-02-26T08:35:39;15.70;;;3.38;;
80700;SDS011;71609;42.630;23.380;2024-02-26T08:38:04;23.70;;;3.78;;
80700;SDS011;71609;42.630;23.380;2024-02-26T08:40:30;18.00;;;3.58;;
80700;SDS011;71609;42.630;23.380;2024-02-26T08:42:56;18.80;;;3.53;;
80700;SDS011;71609;42.630;23.380;2024-02-26T08:45:22;18.33;;;3.85;;
80700;SDS011;71609;42.630;23.380;2024-02-26T08:47:48;16.80;;;3.55;;
80700;SDS011;71609;42.630;23.380;2024-02-26T08:50:14;16.25;;;3.50;;
80700;SDS011;71609;42.630;23.380;2024-02-26T08:52:40;13.65;;;3.38;;
80700;SDS011;71609;42.630;23.380;2024-02-26T08:55:06;19.58;;;3.70;;
80700;SDS011;71609;42.630;23.380;2024-02-26T08:57:34;14.18;;;3.50;;
80700;SDS011;71609;42.630;23.380;2024-02-26T09:00:00;17.58;;;3.67;;
80700;SDS011;71609;42.630;23.380;2024-02-26T09:04:55;20.00;;;3.72;;
80700;SDS011;71609;42.630;23.380;2024-02-26T09:07:22;22.00;;;3.38;;
80700;SDS011;71609;42.630;23.380;2024-02-26T09:09:47;9.05;;;3.42;;
80700;SDS011;71609;42.630;23.380;2024-02-26T09:12:13;13.32;;;2.95;;
80700;SDS011;71609;42.630;23.380;2024-02-26T09:14:39;13.88;;;3.08;;
80700;SDS011;71609;42.630;23.380;2024-02-26T09:17:04;14.90;;;2.95;;
80700;SDS011;71609;42.630;23.380;2024-02-26T09:19:31;16.10;;;3.38;;
80700;SDS011;71609;42.630;23.380;2024-02-26T09:21:56;21.48;;;3.25;;
80700;SDS011;71609;42.630;23.380;2024-02-26T09:24:23;21.27;;;3.65;;
80700;SDS011;71609;42.630;23.380;2024-02-26T09:26:50;17.98;;;3.72;;
80700;SDS011;71609;42.630;23.380;2024-02-26T09:29:15;15.05;;;3.35;;
80700;SDS011;71609;42.630;23.380;2024-02-26T09:31:41;12.95;;;3.33;;
80700;SDS011;71609;42.630;23.380;2024-02-26T09:34:07;14.90;;;2.85;;
80700;SDS011;71609;42.630;23.380;2024-02-26T09:36:33;23.13;;;3.03;;
80700;SDS011;71609;42.630;23.380;2024-02-26T09:38:59;16.05;;;2.95;;
80700;SDS011;71609;42.630;23.380;2024-02-26T09:41:27;15.05;;;2.80;;
80700;SDS011;71609;42.630;23.380;2024-02-26T09:46:21;16.05;;;3.50;;
80700;SDS011;71609;42.630;23.380;2024-02-26T09:48:50;10.70;;;2.83;;
80700;SDS011;71609;42.630;23.380;2024-02-26T09:51:16;13.77;;;3.38;;
80700;SDS011;71609;42.630;23.380;2024-02-26T09:53:43;12.10;;;2.80;;
80700;SDS011;71609;42.630;23.380;2024-02-26T09:56:12;10.43;;;2.92;;
80700;SDS011;71609;42.630;23.380;2024-02-26T09:58:38;10.90;;;3.65;;
80700;SDS011;71609;42.630;23.380;2024-02-26T10:01:09;11.05;;;2.97;;
80700;SDS011;71609;42.630;23.380;2024-02-26T10:03:38;13.27;;;3.05;;
80700;SDS011;71609;42.630;23.380;2024-02-26T10:06:07;12.20;;;2.90;;
80700;SDS011;71609;42.630;23.380;2024-02-26T10:08:33;10.43;;;2.65;;
80700;SDS011;71609;42.630;23.380;2024-02-26T10:11:02;12.57;;;2.80;;
80700;SDS011;71609;42.630;23.380;2024-02-26T10:13:31;26.25;;;3.67;;
80700;SDS011;71609;42.630;23.380;2024-02-26T10:15:57;49.78;;;5.50;;
80700;SDS011;71609;42.630;23.380;2024-02-26T10:18:23;17.33;;;3.60;;
80700;SDS011;71609;42.630;23.380;2024-02-26T10:21:07;29.08;;;4.93;;
80700;SDS011;71609;42.630;23.380;2024-02-26T10:23:33;21.88;;;4.07;;
80700;SDS011;71609;42.630;23.380;2024-02-26T10:25:59;31.45;;;3.83;;
80700;SDS011;71609;42.630;23.380;2024-02-26T10:28:25;13.05;;;3.10;;
80700;SDS011;71609;42.630;23.380;2024-02-26T10:30:51;23.65;;;3.50;;
80700;SDS011;71609;42.630;23.380;2024-02-26T10:33:17;12.98;;;3.53;;
80700;SDS011;71609;42.630;23.380;2024-02-26T10:35:46;12.40;;;3.08;;
80700;SDS011;71609;42.630;23.380;2024-02-26T10:38:13;11.23;;;2.72;;
80700;SDS011;71609;42.630;23.380;2024-02-26T10:40:41;12.43;;;3.15;;
80700;SDS011;71609;42.630;23.380;2024-02-26T10:43:07;11.60;;;3.33;;
80700;SDS011;71609;42.630;23.380;2024-02-26T10:45:33;10.27;;;3.08;;
80700;SDS011;71609;42.630;23.380;2024-02-26T10:48:00;12.80;;;3.00;;
80700;SDS011;71609;42.630;23.380;2024-02-26T10:50:25;9.20;;;3.20;;
80700;SDS011;71609;42.630;23.380;2024-02-26T10:52:51;13.32;;;3.53;;
80700;SDS011;71609;42.630;23.380;2024-02-26T10:55:19;20.50;;;3.35;;
80700;SDS011;71609;42.630;23.380;2024-02-26T10:57:47;13.00;;;3.15;;
80700;SDS011;71609;42.630;23.380;2024-02-26T11:00:17;12.13;;;3.28;;
80700;SDS011;71609;42.630;23.380;2024-02-26T11:02:44;7.38;;;3.28;;
80700;SDS011;71609;42.630;23.380;2024-02-26T11:05:11;13.73;;;3.60;;
80700;SDS011;71609;42.630;23.380;2024-02-26T11:07:38;8.02;;;3.00;;
80700;SDS011;71609;42.630;23.380;2024-02-26T11:10:06;7.50;;;3.20;;
80700;SDS011;71609;42.630;23.380;2024-02-26T11:12:33;13.93;;;3.28;;
80700;SDS011;71609;42.630;23.380;2024-02-26T11:15:03;6.65;;;3.00;;
80700;SDS011;71609;42.630;23.380;2024-02-26T11:17:30;10.45;;;2.83;;
80700;SDS011;71609;42.630;23.380;2024-02-26T11:19:57;8.00;;;2.95;;
80700;SDS011;71609;42.630;23.380;2024-02-26T11:22:24;12.05;;;3.10;;
80700;SDS011;71609;42.630;23.380;2024-02-26T11:24:54;8.38;;;2.60;;
80700;SDS011;71609;42.630;23.380;2024-02-26T11:27:26;13.27;;;3.17;;
80700;SDS011;71609;42.630;23.380;2024-02-26T11:29:56;16.90;;;3.13;;
80700;SDS011;71609;42.630;23.380;2024-02-26T11:32:26;9.73;;;2.95;;
80700;SDS011;71609;42.630;23.380;2024-02-26T11:34:53;7.90;;;2.83;;
80700;SDS011;71609;42.630;23.380;2024-02-26T11:37:19;12.00;;;3.38;;
80700;SDS011;71609;42.630;23.380;2024-02-26T11:39:45;7.38;;;2.70;;
80700;SDS011;71609;42.630;23.380;2024-02-26T11:42:13;6.85;;;2.40;;
80700;SDS011;71609;42.630;23.380;2024-02-26T11:44:40;6.63;;;2.50;;
80700;SDS011;71609;42.630;23.380;2024-02-26T11:47:12;9.30;;;3.08;;
80700;SDS011;71609;42.630;23.380;2024-02-26T11:49:39;7.32;;;3.08;;
80700;SDS011;71609;42.630;23.380;2024-02-26T11:52:06;13.35;;;2.67;;
80700;SDS011;71609;42.630;23.380;2024-02-26T11:59:51;8.45;;;2.55;;
80700;SDS011;71609;42.630;23.380;2024-02-26T12:02:51;6.25;;;2.47;;
80700;SDS011;71609;42.630;23.380;2024-02-26T12:05:16;12.30;;;2.60;;
80700;SDS011;71609;42.630;23.380;2024-02-26T12:07:45;5.15;;;2.67;;
80700;SDS011;71609;42.630;23.380;2024-02-26T12:10:30;8.52;;;2.35;;
80700;SDS011;71609;42.630;23.380;2024-02-26T12:13:21;5.75;;;2.55;;
80700;SDS011;71609;42.630;23.380;2024-02-26T12:15:55;7.10;;;2.53;;
80700;SDS011;71609;42.630;23.380;2024-02-26T12:18:22;6.13;;;2.53;;
80700;SDS011;71609;42.630;23.380;2024-02-26T12:21:00;5.45;;;2.50;;
80700;SDS011;71609;42.630;23.380;2024-02-26T12:23:28;6.75;;;2.67;;
80700;SDS011;71609;42.630;23.380;2024-02-26T12:25:54;5.88;;;2.45;;
80700;SDS011;71609;42.630;23.380;2024-02-26T12:28:27;6.20;;;2.70;;
80700;SDS011;71609;42.630;23.380;2024-02-26T12:30:56;8.02;;;2.30;;
80700;SDS011;71609;42.630;23.380;2024-02-26T12:33:24;6.45;;;2.50;;
80700;SDS011;71609;42.630;23.380;2024-02-26T12:35:51;8.27;;;2.80;;
80700;SDS011;71609;42.630;23.380;2024-02-26T12:38:18;5.60;;;2.72;;
80700;SDS011;71609;42.630;23.380;2024-02-26T12:40:44;9.27;;;2.65;;
80700;SDS011;71609;42.630;23.380;2024-02-26T12:43:10;5.72;;;2.35;;
80700;SDS011;71609;42.630;23.380;2024-02-26T12:45:42;10.32;;;2.50;;
80700;SDS011;71609;42.630;23.380;2024-02-26T12:48:12;7.18;;;2.65;;
80700;SDS011;71609;42.630;23.380;2024-02-26T12:50:39;5.07;;;2.17;;
80700;SDS011;71609;42.630;23.380;2024-02-26T12:53:04;5.80;;;2.63;;
80700;SDS011;71609;42.630;23.380;2024-02-26T12:55:31;7.97;;;2.53;;
80700;SDS011;71609;42.630;23.380;2024-02-26T12:57:59;10.33;;;2.43;;
80700;SDS011;71609;42.630;23.380;2024-02-26T13:00:26;9.10;;;2.60;;
80700;SDS011;71609;42.630;23.380;2024-02-26T13:02:53;9.38;;;2.85;;
80700;SDS011;71609;42.630;23.380;2024-02-26T13:05:20;6.82;;;2.30;;
80700;SDS011;71609;42.630;23.380;2024-02-26T13:07:48;12.70;;;2.47;;
80700;SDS011;71609;42.630;23.380;2024-02-26T13:10:13;10.25;;;2.50;;
80700;SDS011;71609;42.630;23.380;2024-02-26T13:12:46;15.45;;;2.58;;
80700;SDS011;71609;42.630;23.380;2024-02-26T13:15:16;11.35;;;2.63;;
80700;SDS011;71609;42.630;23.380;2024-02-26T13:17:43;8.70;;;2.75;;
80700;SDS011;71609;42.630;23.380;2024-02-26T13:20:09;28.92;;;3.20;;
80700;SDS011;71609;42.630;23.380;2024-02-26T13:22:36;13.85;;;2.58;;
80700;SDS011;71609;42.630;23.380;2024-02-26T13:25:02;8.43;;;2.55;;
80700;SDS011;71609;42.630;23.380;2024-02-26T13:27:28;20.65;;;3.30;;
80700;SDS011;71609;42.630;23.380;2024-02-26T13:30:10;14.70;;;2.70;;
80700;SDS011;71609;42.630;23.380;2024-02-26T13:32:38;21.88;;;2.88;;
80700;SDS011;71609;42.630;23.380;2024-02-26T13:35:08;13.05;;;3.30;;
80700;SDS011;71609;42.630;23.380;2024-02-26T13:37:38;8.63;;;2.65;;
80700;SDS011;71609;42.630;23.380;2024-02-26T13:40:08;10.45;;;2.75;;
80700;SDS011;71609;42.630;23.380;2024-02-26T13:42:36;7.60;;;2.20;;
80700;SDS011;71609;42.630;23.380;2024-02-26T13:45:03;6.15;;;2.50;;
80700;SDS011;71609;42.630;23.380;2024-02-26T13:47:33;10.65;;;2.50;;
80700;SDS011;71609;42.630;23.380;2024-02-26T13:49:59;10.77;;;2.58;;
80700;SDS011;71609;42.630;23.380;2024-02-26T13:52:25;11.60;;;2.60;;
80700;SDS011;71609;42.630;23.380;2024-02-26T13:54:51;12.05;;;2.92;;
80700;SDS011;71609;42.630;23.380;2024-02-26T13:57:18;9.35;;;2.80;;
80700;SDS011;71609;42.630;23.380;2024-02-26T13:59:44;14.20;;;3.20;;
80700;SDS011;71609;42.630;23.380;2024-02-26T14:02:10;9.20;;;2.80;;
80700;SDS011;71609;42.630;23.380;2024-02-26T14:04:36;12.10;;;2.88;;
80700;SDS011;71609;42.630;23.380;2024-02-26T14:07:03;11.50;;;2.67;;
80700;SDS011;71609;42.630;23.380;2024-02-26T14:09:29;14.45;;;2.80;;
80700;SDS011;71609;42.630;23.380;2024-02-26T14:11:57;7.28;;;2.33;;
80700;SDS011;71609;42.630;23.380;2024-02-26T14:14:23;7.78;;;2.50;;
80700;SDS011;71609;42.630;23.380;2024-02-26T14:16:51;13.75;;;2.75;;
80700;SDS011;71609;42.630;23.380;2024-02-26T14:19:16;28.08;;;2.65;;
80700;SDS011;71609;42.630;23.380;2024-02-26T14:21:42;8.50;;;2.67;;
80700;SDS011;71609;42.630;23.380;2024-02-26T14:24:08;13.65;;;2.90;;
80700;SDS011;71609;42.630;23.380;2024-02-26T14:26:34;15.98;;;2.60;;
80700;SDS011;71609;42.630;23.380;2024-02-26T14:28:59;14.95;;;2.58;;
80700;SDS011;71609;42.630;23.380;2024-02-26T14:31:25;12.52;;;2.78;;
80700;SDS011;71609;42.630;23.380;2024-02-26T14:33:51;21.40;;;3.28;;
80700;SDS011;71609;42.630;23.380;2024-02-26T14:36:19;16.17;;;3.65;;